createdAt,value
2023-08-02T00:00:49.813Z,1007.20
2023-08-02T00:01:53.995Z,1007.20
2023-08-02T00:02:58.309Z,1007.21
2023-08-02T00:04:11.037Z,1007.08
2023-08-02T00:05:07.206Z,1007.11
2023-08-02T00:06:11.809Z,1007.05
2023-08-02T00:07:16.121Z,1007.10
2023-08-02T00:08:19.936Z,1007.07
2023-08-02T00:09:24.290Z,1007.08
2023-08-02T00:10:28.620Z,1007.07
2023-08-02T00:11:33.245Z,1007.12
2023-08-02T00:12:37.556Z,1007.13
2023-08-02T00:13:41.691Z,1007.12
2023-08-02T00:14:46.508Z,1007.14
2023-08-02T00:15:50.870Z,1007.11
2023-08-02T00:16:54.727Z,1007.18
2023-08-02T00:17:59.334Z,1007.20
2023-08-02T00:19:03.650Z,1007.18
2023-08-02T00:20:07.965Z,1007.15
2023-08-02T00:21:12.054Z,1007.18
2023-08-02T00:22:16.652Z,1007.09
2023-08-02T00:23:20.999Z,1007.13
2023-08-02T00:24:25.595Z,1007.15
2023-08-02T00:25:29.951Z,1007.08
2023-08-02T00:26:34.039Z,1007.11
2023-08-02T00:27:38.127Z,1007.10
2023-08-02T00:28:38.575Z,1007.15
2023-08-02T00:29:42.669Z,1007.18
2023-08-02T00:30:47.302Z,1007.16
2023-08-02T00:31:51.363Z,1007.21
2023-08-02T00:32:55.688Z,1007.24
2023-08-02T00:34:00.055Z,1007.26
2023-08-02T00:35:04.613Z,1007.25
2023-08-02T00:36:09.243Z,1007.31
2023-08-02T00:37:13.304Z,1007.24
2023-08-02T00:38:17.632Z,1007.20
2023-08-02T00:39:21.979Z,1007.20
2023-08-02T00:40:26.052Z,1007.24
2023-08-02T00:41:30.400Z,1007.26
2023-08-02T00:42:34.730Z,1007.29
2023-08-02T00:43:39.347Z,1007.24
2023-08-02T00:44:43.684Z,1007.28
2023-08-02T00:45:48.365Z,1007.29
2023-08-02T00:46:52.513Z,1007.25
2023-08-02T00:47:56.472Z,1007.23
2023-08-02T00:49:46.364Z,1007.18
2023-08-02T00:50:51.479Z,1007.20
2023-08-02T00:51:55.817Z,1007.19
2023-08-02T00:53:00.163Z,1007.26
2023-08-02T00:54:04.743Z,1007.24
2023-08-02T00:55:09.322Z,1007.20
2023-08-02T00:56:13.133Z,1007.22
2023-08-02T00:57:16.743Z,1007.16
2023-08-02T00:58:18.617Z,1007.14
2023-08-02T00:59:23.182Z,1007.21
2023-08-02T01:00:27.539Z,1007.13
2023-08-02T01:01:31.658Z,1007.12
2023-08-02T01:02:36.336Z,1007.12
2023-08-02T01:03:40.498Z,1007.12
2023-08-02T01:04:44.825Z,1007.12
2023-08-02T01:05:49.250Z,1007.08
2023-08-02T01:06:53.525Z,1007.14
2023-08-02T01:07:57.566Z,1007.10
2023-08-02T01:09:02.133Z,1007.07
2023-08-02T01:10:06.495Z,1007.04
2023-08-02T01:11:10.527Z,1007.04
2023-08-02T01:12:14.842Z,1006.96
2023-08-02T01:13:19.195Z,1007.03
2023-08-02T01:14:23.764Z,1006.97
2023-08-02T01:15:28.342Z,1006.98
2023-08-02T01:16:32.551Z,1006.94
2023-08-02T01:17:36.863Z,1006.91
2023-08-02T01:18:41.078Z,1006.93
2023-08-02T01:19:41.182Z,1006.88
2023-08-02T01:20:45.493Z,1006.88
2023-08-02T01:21:49.552Z,1006.93
2023-08-02T01:22:54.168Z,1006.91
2023-08-02T01:23:58.489Z,1006.89
2023-08-02T01:25:02.578Z,1006.91
2023-08-02T01:26:07.386Z,1006.92
2023-08-02T01:27:11.459Z,1006.87
2023-08-02T01:28:15.782Z,1006.94
2023-08-02T01:29:19.837Z,1006.92
2023-08-02T01:30:24.222Z,1006.86
2023-08-02T01:31:28.813Z,1006.89
2023-08-02T01:33:45.244Z,1006.86
2023-08-02T01:34:49.534Z,1006.78
2023-08-02T01:35:54.365Z,1006.80
2023-08-02T01:36:58.427Z,1006.77
2023-08-02T01:38:02.550Z,1006.79
2023-08-02T01:39:06.812Z,1006.75
2023-08-02T01:40:11.420Z,1006.81
2023-08-02T01:41:15.477Z,1006.73
2023-08-02T01:42:19.801Z,1006.71
2023-08-02T01:43:24.395Z,1006.73
2023-08-02T01:44:28.455Z,1006.70
2023-08-02T01:45:33.092Z,1006.67
2023-08-02T01:46:37.104Z,1006.63
2023-08-02T01:47:41.747Z,1006.55
2023-08-02T01:49:27.974Z,1006.61
2023-08-02T01:50:33.029Z,1006.58
2023-08-02T01:51:37.859Z,1006.59
2023-08-02T01:52:41.933Z,1006.56
2023-08-02T01:53:46.231Z,1006.54
2023-08-02T01:54:50.554Z,1006.52
2023-08-02T01:55:54.647Z,1006.46
2023-08-02T01:56:59.220Z,1006.49
2023-08-02T01:58:03.540Z,1006.55
2023-08-02T01:59:07.877Z,1006.58
2023-08-02T02:00:11.913Z,1006.61
2023-08-02T02:01:16.530Z,1006.51
2023-08-02T02:02:21.079Z,1006.46
2023-08-02T02:03:25.017Z,1006.40
2023-08-02T02:04:29.192Z,1006.30
2023-08-02T02:05:33.548Z,1006.26
2023-08-02T02:06:38.151Z,1006.21
2023-08-02T02:07:42.142Z,1006.18
2023-08-02T02:08:46.713Z,1006.17
2023-08-02T02:09:51.032Z,1006.11
2023-08-02T02:10:55.608Z,1006.21
2023-08-02T02:11:59.698Z,1006.23
2023-08-02T02:13:03.771Z,1006.20
2023-08-02T02:14:08.319Z,1006.26
2023-08-02T02:15:12.381Z,1006.25
2023-08-02T02:16:16.987Z,1006.17
2023-08-02T02:17:21.017Z,1006.17
2023-08-02T02:18:25.132Z,1006.25
2023-08-02T02:19:25.443Z,1006.28
2023-08-02T02:20:30.004Z,1006.37
2023-08-02T02:21:34.597Z,1006.37
2023-08-02T02:22:38.901Z,1006.37
2023-08-02T02:23:42.725Z,1006.35
2023-08-02T02:24:47.295Z,1006.33
2023-08-02T02:25:51.611Z,1006.28
2023-08-02T02:26:55.931Z,1006.30
2023-08-02T02:28:00.506Z,1006.29
2023-08-02T02:29:04.596Z,1006.31
2023-08-02T02:30:08.897Z,1006.25
2023-08-02T02:31:13.503Z,1006.29
2023-08-02T02:32:17.842Z,1006.29
2023-08-02T02:33:21.936Z,1006.35
2023-08-02T02:34:26.242Z,1006.36
2023-08-02T02:35:30.807Z,1006.36
2023-08-02T02:36:35.129Z,1006.37
2023-08-02T02:37:39.478Z,1006.33
2023-08-02T02:38:43.782Z,1006.30
2023-08-02T02:39:48.097Z,1006.29
2023-08-02T02:40:52.670Z,1006.29
2023-08-02T02:41:56.747Z,1006.29
2023-08-02T02:43:01.060Z,1006.30
2023-08-02T02:44:05.121Z,1006.25
2023-08-02T02:45:09.686Z,1006.24
2023-08-02T02:46:14.056Z,1006.30
2023-08-02T02:47:18.089Z,1006.25
2023-08-02T02:48:22.651Z,1006.24
2023-08-02T02:49:22.756Z,1006.26
2023-08-02T02:50:26.803Z,1006.26
2023-08-02T02:51:31.368Z,1006.28
2023-08-02T02:52:35.683Z,1006.26
2023-08-02T02:53:39.765Z,1006.32
2023-08-02T02:54:44.326Z,1006.36
2023-08-02T02:55:48.407Z,1006.42
2023-08-02T02:56:52.971Z,1006.37
2023-08-02T02:57:57.014Z,1006.34
2023-08-02T02:59:01.351Z,1006.35
2023-08-02T03:00:05.948Z,1006.30
2023-08-02T03:01:10.410Z,1006.30
2023-08-02T03:02:14.888Z,1006.30
2023-08-02T03:03:18.654Z,1006.30
2023-08-02T03:04:23.206Z,1006.33
2023-08-02T03:05:27.541Z,1006.32
2023-08-02T03:06:31.649Z,1006.32
2023-08-02T03:07:36.172Z,1006.31
2023-08-02T03:08:40.492Z,1006.28
2023-08-02T03:09:45.104Z,1006.26
2023-08-02T03:10:49.397Z,1006.22
2023-08-02T03:11:53.469Z,1006.17
2023-08-02T03:12:57.496Z,1006.19
2023-08-02T03:14:01.814Z,1006.15
2023-08-02T03:15:06.394Z,1006.12
2023-08-02T03:16:10.494Z,1006.10
2023-08-02T03:17:14.779Z,1006.06
2023-08-02T03:18:19.186Z,1006.05
2023-08-02T03:19:19.200Z,1006.08
2023-08-02T03:20:23.772Z,1006.01
2023-08-02T03:21:28.100Z,1006.00
2023-08-02T03:22:32.671Z,1005.98
2023-08-02T03:23:36.773Z,1005.96
2023-08-02T03:24:41.066Z,1006.01
2023-08-02T03:25:45.189Z,1005.99
2023-08-02T03:26:49.478Z,1005.95
2023-08-02T03:27:53.777Z,1005.96
2023-08-02T03:28:58.376Z,1005.98
2023-08-02T03:30:02.412Z,1005.99
2023-08-02T03:31:07.050Z,1005.95
2023-08-02T03:32:11.321Z,1005.99
2023-08-02T03:33:15.378Z,1005.99
2023-08-02T03:34:19.714Z,1005.89
2023-08-02T03:35:24.281Z,1005.83
2023-08-02T03:36:28.627Z,1005.86
2023-08-02T03:37:32.973Z,1005.88
2023-08-02T03:38:37.062Z,1005.95
2023-08-02T03:39:41.893Z,1006.00
2023-08-02T03:40:45.993Z,1005.95
2023-08-02T03:41:50.101Z,1005.98
2023-08-02T03:42:54.661Z,1005.99
2023-08-02T03:43:59.006Z,1005.94
2023-08-02T03:45:03.085Z,1005.91
2023-08-02T03:46:07.696Z,1005.98
2023-08-02T03:47:12.049Z,1005.93
2023-08-02T03:48:16.108Z,1005.93
2023-08-02T03:49:16.247Z,1005.87
2023-08-02T03:50:20.836Z,1005.84
2023-08-02T03:51:25.197Z,1005.89
2023-08-02T03:52:29.759Z,1005.79
2023-08-02T03:53:33.847Z,1005.77
2023-08-02T03:54:37.940Z,1005.72
2023-08-02T03:55:42.265Z,1005.69
2023-08-02T03:56:46.758Z,1005.64
2023-08-02T03:57:51.289Z,1005.61
2023-08-02T03:58:55.296Z,1005.59
2023-08-02T03:59:59.659Z,1005.60
2023-08-02T04:01:04.515Z,1005.56
2023-08-02T04:02:08.371Z,1005.58
2023-08-02T04:03:12.674Z,1005.61
2023-08-02T04:04:17.293Z,1005.59
2023-08-02T04:05:21.620Z,1005.58
2023-08-02T04:06:25.975Z,1005.52
2023-08-02T04:07:30.035Z,1005.47
2023-08-02T04:08:34.658Z,1005.44
2023-08-02T04:09:39.234Z,1005.41
2023-08-02T04:10:43.596Z,1005.41
2023-08-02T04:11:47.684Z,1005.42
2023-08-02T04:12:52.027Z,1005.44
2023-08-02T04:13:56.114Z,1005.46
2023-08-02T04:15:00.689Z,1005.48
2023-08-02T04:16:05.043Z,1005.56
2023-08-02T04:17:09.387Z,1005.55
2023-08-02T04:18:13.475Z,1005.60
2023-08-02T04:19:13.621Z,1005.54
2023-08-02T04:20:18.188Z,1005.54
2023-08-02T04:21:22.808Z,1005.55
2023-08-02T04:22:27.098Z,1005.62
2023-08-02T04:23:31.217Z,1005.70
2023-08-02T04:24:35.522Z,1005.69
2023-08-02T04:25:39.627Z,1005.68
2023-08-02T04:26:44.357Z,1005.68
2023-08-02T04:27:48.278Z,1005.66
2023-08-02T04:28:52.610Z,1005.62
2023-08-02T04:29:57.556Z,1005.66
2023-08-02T04:31:01.618Z,1005.69
2023-08-02T04:32:05.995Z,1005.65
2023-08-02T04:33:10.044Z,1005.66
2023-08-02T04:34:14.347Z,1005.60
2023-08-02T04:35:18.930Z,1005.53
2023-08-02T04:36:23.015Z,1005.51
2023-08-02T04:37:27.381Z,1005.52
2023-08-02T04:38:31.707Z,1005.53
2023-08-02T04:39:36.570Z,1005.60
2023-08-02T04:40:40.648Z,1005.62
2023-08-02T04:41:44.740Z,1005.60
2023-08-02T04:42:49.350Z,1005.64
2023-08-02T04:43:53.427Z,1005.68
2023-08-02T04:44:57.809Z,1005.69
2023-08-02T04:46:02.456Z,1005.63
2023-08-02T04:47:06.746Z,1005.61
2023-08-02T04:48:11.100Z,1005.59
2023-08-02T04:49:11.290Z,1005.54
2023-08-02T04:50:15.385Z,1005.48
2023-08-02T04:51:19.964Z,1005.52
2023-08-02T04:52:24.312Z,1005.49
2023-08-02T04:53:28.392Z,1005.49
2023-08-02T04:54:32.728Z,1005.47
2023-08-02T04:55:37.061Z,1005.48
2023-08-02T04:56:41.984Z,1005.43
2023-08-02T04:57:46.003Z,1005.43
2023-08-02T04:58:50.089Z,1005.47
2023-08-02T04:59:54.963Z,1005.44
2023-08-02T05:00:59.041Z,1005.47
2023-08-02T05:02:03.439Z,1005.48
2023-08-02T05:03:07.578Z,1005.44
2023-08-02T05:04:11.849Z,1005.48
2023-08-02T05:05:16.403Z,1005.49
2023-08-02T05:06:20.533Z,1005.49
2023-08-02T05:07:25.094Z,1005.58
2023-08-02T05:08:29.688Z,1005.58
2023-08-02T05:09:34.050Z,1005.52
2023-08-02T05:10:38.112Z,1005.47
2023-08-02T05:11:42.722Z,1005.45
2023-08-02T05:12:46.532Z,1005.33
2023-08-02T05:13:51.124Z,1005.29
2023-08-02T05:14:54.447Z,1005.22
2023-08-02T05:15:59.585Z,1005.25
2023-08-02T05:17:03.896Z,1005.21
2023-08-02T05:18:08.538Z,1005.19
2023-08-02T05:19:08.467Z,1005.23
2023-08-02T05:20:13.318Z,1005.23
2023-08-02T05:21:17.405Z,1005.21
2023-08-02T05:22:21.487Z,1005.17
2023-08-02T05:23:25.883Z,1005.23
2023-08-02T05:24:30.184Z,1005.19
2023-08-02T05:25:34.766Z,1005.20
2023-08-02T05:26:38.849Z,1005.13
2023-08-02T05:27:43.188Z,1005.19
2023-08-02T05:28:47.532Z,1005.24
2023-08-02T05:29:52.383Z,1005.24
2023-08-02T05:30:56.223Z,1005.20
2023-08-02T05:32:00.851Z,1005.15
2023-08-02T05:33:05.220Z,1005.14
2023-08-02T05:34:09.524Z,1005.14
2023-08-02T05:35:13.567Z,1005.11
2023-08-02T05:36:18.160Z,1005.10
2023-08-02T05:37:22.512Z,1005.12
2023-08-02T05:38:27.080Z,1005.03
2023-08-02T05:39:31.420Z,1005.05
2023-08-02T05:40:35.538Z,1005.08
2023-08-02T05:41:39.706Z,1005.10
2023-08-02T05:42:43.940Z,1005.10
2023-08-02T05:43:48.538Z,1005.05
2023-08-02T05:44:52.605Z,1004.92
2023-08-02T05:45:57.253Z,1004.79
2023-08-02T05:47:01.294Z,1004.71
2023-08-02T05:48:06.009Z,1004.69
2023-08-02T05:49:05.799Z,1004.65
2023-08-02T05:50:10.408Z,1004.68
2023-08-02T05:51:14.715Z,1004.68
2023-08-02T05:52:19.063Z,1004.62
2023-08-02T05:53:23.146Z,1004.61
2023-08-02T05:54:27.803Z,1004.64
2023-08-02T05:55:32.108Z,1004.56
2023-08-02T05:56:36.430Z,1004.59
2023-08-02T05:57:40.856Z,1004.61
2023-08-02T05:58:45.120Z,1004.61
2023-08-02T05:59:49.702Z,1004.54
2023-08-02T06:00:53.593Z,1004.53
2023-08-02T06:01:57.871Z,1004.56
2023-08-02T06:03:02.474Z,1004.53
2023-08-02T06:04:07.087Z,1004.48
2023-08-02T06:05:11.169Z,1004.47
2023-08-02T06:06:15.560Z,1004.49
2023-08-02T06:07:19.576Z,1004.50
2023-08-02T06:08:24.459Z,1004.49
2023-08-02T06:09:28.512Z,1004.47
2023-08-02T06:10:32.863Z,1004.43
2023-08-02T06:11:36.979Z,1004.45
2023-08-02T06:12:41.298Z,1004.46
2023-08-02T06:13:45.650Z,1004.44
2023-08-02T06:14:50.257Z,1004.45
2023-08-02T06:15:54.336Z,1004.48
2023-08-02T06:16:58.923Z,1004.43
2023-08-02T06:18:03.301Z,1004.43
2023-08-02T06:19:03.945Z,1004.41
2023-08-02T06:20:07.736Z,1004.41
2023-08-02T06:21:12.078Z,1004.37
2023-08-02T06:22:16.177Z,1004.31
2023-08-02T06:23:20.746Z,1004.28
2023-08-02T06:24:24.834Z,1004.23
2023-08-02T06:25:29.194Z,1004.22
2023-08-02T06:26:33.795Z,1004.30
2023-08-02T06:27:37.874Z,1004.32
2023-08-02T06:28:42.455Z,1004.31
2023-08-02T06:29:46.803Z,1004.33
2023-08-02T06:30:51.184Z,1004.32
2023-08-02T06:31:55.494Z,1004.31
2023-08-02T06:32:59.607Z,1004.26
2023-08-02T06:34:03.924Z,1004.25
2023-08-02T06:35:08.288Z,1004.24
2023-08-02T06:36:12.661Z,1004.21
2023-08-02T06:37:16.964Z,1004.21
2023-08-02T06:38:21.693Z,1004.25
2023-08-02T06:39:25.908Z,1004.23
2023-08-02T06:40:29.966Z,1004.21
2023-08-02T06:41:34.322Z,1004.23
2023-08-02T06:42:38.916Z,1004.21
2023-08-02T06:43:43.007Z,1004.24
2023-08-02T06:44:47.395Z,1004.28
2023-08-02T06:45:51.669Z,1004.26
2023-08-02T06:46:56.546Z,1004.22
2023-08-02T06:48:00.618Z,1004.24
2023-08-02T06:49:01.254Z,1004.20
2023-08-02T06:50:05.297Z,1004.18
2023-08-02T06:51:09.121Z,1004.16
2023-08-02T06:52:13.741Z,1004.18
2023-08-02T06:53:18.065Z,1004.16
2023-08-02T06:54:23.212Z,1004.19
2023-08-02T06:55:22.578Z,1004.17
2023-08-02T06:56:26.692Z,1004.21
2023-08-02T06:57:31.277Z,1004.16
2023-08-02T06:58:35.625Z,1004.11
2023-08-02T06:59:39.694Z,1004.12
2023-08-02T07:00:44.330Z,1004.10
2023-08-02T07:01:48.633Z,1004.08
2023-08-02T07:02:52.717Z,1004.08
2023-08-02T07:03:57.306Z,1004.05
2023-08-02T07:05:01.624Z,1004.07
2023-08-02T07:06:05.758Z,1003.97
2023-08-02T07:07:10.319Z,1003.93
2023-08-02T07:08:14.410Z,1003.96
2023-08-02T07:09:19.283Z,1003.96
2023-08-02T07:10:23.388Z,1004.00
2023-08-02T07:11:36.321Z,1003.98
2023-08-02T07:12:32.034Z,1003.93
2023-08-02T07:13:36.377Z,1003.90
2023-08-02T07:14:40.449Z,1003.86
2023-08-02T07:15:44.784Z,1003.85
2023-08-02T07:16:49.172Z,1003.88
2023-08-02T07:17:54.402Z,1003.90
2023-08-02T07:18:59.352Z,1003.84
2023-08-02T07:20:03.433Z,1003.89
2023-08-02T07:21:07.509Z,1003.85
2023-08-02T07:22:11.844Z,1003.82
2023-08-02T07:23:16.448Z,1003.81
2023-08-02T07:24:20.518Z,1003.81
2023-08-02T07:25:24.858Z,1003.78
2023-08-02T07:26:29.492Z,1003.78
2023-08-02T07:27:33.825Z,1003.76
2023-08-02T07:28:38.141Z,1003.74
2023-08-02T07:29:42.223Z,1003.66
2023-08-02T07:30:46.884Z,1003.70
2023-08-02T07:31:51.170Z,1003.62
2023-08-02T07:32:55.323Z,1003.56
2023-08-02T07:33:59.874Z,1003.55
2023-08-02T07:35:04.232Z,1003.54
2023-08-02T07:36:08.535Z,1003.54
2023-08-02T07:37:13.159Z,1003.59
2023-08-02T07:38:16.982Z,1003.56
2023-08-02T07:39:21.317Z,1003.58
2023-08-02T07:40:25.746Z,1003.56
2023-08-02T07:41:30.293Z,1003.58
2023-08-02T07:42:34.642Z,1003.61
2023-08-02T07:43:38.970Z,1003.53
2023-08-02T07:44:43.341Z,1003.49
2023-08-02T07:45:47.673Z,1003.46
2023-08-02T07:46:52.055Z,1003.44
2023-08-02T07:47:56.449Z,1003.44
2023-08-02T07:49:01.670Z,1003.43
2023-08-02T07:50:05.749Z,1003.35
2023-08-02T07:51:10.343Z,1003.32
2023-08-02T07:52:14.512Z,1003.32
2023-08-02T07:53:19.017Z,1003.30
2023-08-02T07:54:23.610Z,1003.31
2023-08-02T07:55:27.704Z,1003.36
2023-08-02T07:56:32.033Z,1003.33
2023-08-02T07:57:36.109Z,1003.36
2023-08-02T07:58:40.433Z,1003.30
2023-08-02T07:59:44.777Z,1003.25
2023-08-02T08:00:49.455Z,1003.20
2023-08-02T08:01:53.767Z,1003.21
2023-08-02T08:02:58.183Z,1003.21
2023-08-02T08:03:59.838Z,1003.21
2023-08-02T08:05:06.904Z,1003.24
2023-08-02T08:06:11.280Z,1003.10
2023-08-02T08:07:15.824Z,1003.12
2023-08-02T08:08:20.181Z,1003.12
2023-08-02T08:09:24.519Z,1003.13
2023-08-02T08:10:28.872Z,1003.12
2023-08-02T08:11:33.476Z,1003.15
2023-08-02T08:12:37.561Z,1003.13
2023-08-02T08:13:41.640Z,1003.12
2023-08-02T08:14:46.257Z,1003.18
2023-08-02T08:15:50.631Z,1003.09
2023-08-02T08:16:54.994Z,1003.12
2023-08-02T08:17:59.081Z,1003.17
2023-08-02T08:19:04.937Z,1003.09
2023-08-02T08:20:09.238Z,1003.06
2023-08-02T08:21:13.577Z,1003.00
2023-08-02T08:22:17.654Z,1003.01
2023-08-02T08:23:22.006Z,1002.96
2023-08-02T08:24:26.091Z,1002.93
2023-08-02T08:25:30.424Z,1002.92
2023-08-02T08:26:34.769Z,1002.90
2023-08-02T08:27:39.109Z,1002.87
2023-08-02T08:28:43.713Z,1002.88
2023-08-02T08:29:48.057Z,1002.81
2023-08-02T08:30:52.658Z,1002.79
2023-08-02T08:31:56.794Z,1002.74
2023-08-02T08:33:00.992Z,1002.79
2023-08-02T08:34:05.201Z,1002.71
2023-08-02T08:35:09.799Z,1002.72
2023-08-02T08:36:14.138Z,1002.62
2023-08-02T08:37:18.511Z,1002.65
2023-08-02T08:38:23.111Z,1002.62
2023-08-02T08:39:27.475Z,1002.63
2023-08-02T08:40:31.813Z,1002.63
2023-08-02T08:41:35.651Z,1002.63
2023-08-02T08:42:39.979Z,1002.60
2023-08-02T08:43:44.569Z,1002.60
2023-08-02T08:44:48.912Z,1002.60
2023-08-02T08:45:53.014Z,1002.58
2023-08-02T08:46:57.341Z,1002.60
2023-08-02T08:48:01.952Z,1002.64
2023-08-02T08:49:07.528Z,1002.61
2023-08-02T08:50:11.403Z,1002.59
2023-08-02T08:51:15.733Z,1002.51
2023-08-02T08:52:20.081Z,1002.47
2023-08-02T08:53:24.432Z,1002.44
2023-08-02T08:54:28.787Z,1002.45
2023-08-02T08:55:33.389Z,1002.44
2023-08-02T08:56:37.747Z,1002.43
2023-08-02T08:57:42.079Z,1002.44
2023-08-02T08:58:46.404Z,1002.42
2023-08-02T08:59:50.491Z,1002.33
2023-08-02T09:00:54.898Z,1002.29
2023-08-02T09:01:59.463Z,1002.26
2023-08-02T09:03:03.677Z,1002.22
2023-08-02T09:04:07.949Z,1002.21
2023-08-02T09:05:12.473Z,1002.12
2023-08-02T09:06:16.850Z,1002.12
2023-08-02T09:07:20.904Z,1002.04
2023-08-02T09:08:25.267Z,1002.04
2023-08-02T09:09:29.844Z,1002.02
2023-08-02T09:10:34.191Z,1002.02
2023-08-02T09:11:38.546Z,1001.98
2023-08-02T09:12:42.882Z,1001.94
2023-08-02T09:13:47.241Z,1001.97
2023-08-02T09:14:51.830Z,1001.92
2023-08-02T09:15:55.950Z,1001.88
2023-08-02T09:17:00.254Z,1001.91
2023-08-02T09:18:04.675Z,1001.93
2023-08-02T09:19:10.213Z,1001.87
2023-08-02T09:20:14.359Z,1001.76
2023-08-02T09:21:18.394Z,1001.69
2023-08-02T09:22:24.806Z,1001.68
2023-08-02T09:23:27.633Z,1001.62
2023-08-02T09:24:31.443Z,1001.66
2023-08-02T09:25:35.778Z,1001.62
2023-08-02T09:26:40.399Z,1001.64
2023-08-02T09:27:44.741Z,1001.66
2023-08-02T09:28:49.085Z,1001.60
2023-08-02T09:29:53.408Z,1001.63
2023-08-02T09:30:57.504Z,1001.58
2023-08-02T09:32:02.433Z,1001.60
2023-08-02T09:33:06.708Z,1001.61
2023-08-02T09:34:10.824Z,1001.66
2023-08-02T09:35:14.869Z,1001.73
2023-08-02T09:36:19.263Z,1001.68
2023-08-02T09:37:23.552Z,1001.59
2023-08-02T09:38:28.230Z,1001.52
2023-08-02T09:39:32.569Z,1001.50
2023-08-02T09:40:49.398Z,1001.44
2023-08-02T09:41:57.814Z,1001.49
2023-08-02T09:42:45.547Z,1001.47
2023-08-02T09:43:49.893Z,1001.39
2023-08-02T09:44:53.985Z,1001.36
2023-08-02T09:45:58.607Z,1001.38
2023-08-02T09:47:02.639Z,1001.37
2023-08-02T09:48:07.277Z,1001.38
2023-08-02T09:49:12.853Z,1001.39
2023-08-02T09:50:16.926Z,1001.32
2023-08-02T09:51:21.271Z,1001.31
2023-08-02T09:52:25.659Z,1001.27
2023-08-02T09:53:29.966Z,1001.28
2023-08-02T09:54:34.313Z,1001.23
2023-08-02T09:55:38.415Z,1001.23
2023-08-02T09:56:42.769Z,1001.26
2023-08-02T09:57:47.354Z,1001.24
2023-08-02T09:58:51.705Z,1001.23
2023-08-02T09:59:56.306Z,1001.21
2023-08-02T10:01:00.456Z,1001.23
2023-08-02T10:02:04.480Z,1001.19
2023-08-02T10:03:48.466Z,1001.26
2023-08-02T10:04:53.857Z,1001.20
2023-08-02T10:05:57.949Z,1001.16
2023-08-02T10:07:02.532Z,1001.13
2023-08-02T10:08:06.669Z,1001.18
2023-08-02T10:09:11.277Z,1001.11
2023-08-02T10:10:15.584Z,1001.03
2023-08-02T10:11:19.917Z,1000.93
2023-08-02T10:12:24.006Z,1000.83
2023-08-02T10:13:28.336Z,1000.79
2023-08-02T10:14:32.957Z,1000.84
2023-08-02T10:15:37.319Z,1000.86
2023-08-02T10:16:41.947Z,1000.79
2023-08-02T10:17:46.029Z,1000.81
2023-08-02T10:18:50.044Z,1000.82
2023-08-02T10:19:54.399Z,1000.80
2023-08-02T10:20:58.717Z,1000.84
2023-08-02T10:22:03.315Z,1000.82
2023-08-02T10:23:07.663Z,1000.81
2023-08-02T10:25:23.686Z,1000.71
2023-08-02T10:26:29.031Z,1000.59
2023-08-02T10:27:33.628Z,1000.50
2023-08-02T10:28:37.700Z,1000.55
2023-08-02T10:29:41.784Z,1000.48
2023-08-02T10:30:46.114Z,1000.46
2023-08-02T10:31:50.718Z,1000.45
2023-08-02T10:32:54.842Z,1000.44
2023-08-02T10:33:59.392Z,1000.49
2023-08-02T10:35:03.709Z,1000.46
2023-08-02T10:36:08.062Z,1000.50
2023-08-02T10:37:12.649Z,1000.42
2023-08-02T10:38:16.757Z,1000.42
2023-08-02T10:39:21.072Z,1000.41
2023-08-02T10:40:25.415Z,1000.44
2023-08-02T10:41:29.768Z,1000.43
2023-08-02T10:42:34.092Z,1000.43
2023-08-02T10:43:38.410Z,1000.49
2023-08-02T10:44:42.492Z,1000.48
2023-08-02T10:45:47.328Z,1000.51
2023-08-02T10:46:51.194Z,1000.52
2023-08-02T10:47:56.414Z,1000.52
2023-08-02T10:48:59.842Z,1000.45
2023-08-02T10:50:04.482Z,1000.45
2023-08-02T10:51:08.512Z,1000.50
2023-08-02T10:52:12.853Z,1000.44
2023-08-02T10:53:17.207Z,1000.41
2023-08-02T10:54:21.736Z,1000.43
2023-08-02T10:55:21.895Z,1000.36
2023-08-02T10:56:26.027Z,1000.28
2023-08-02T10:57:30.618Z,1000.20
2023-08-02T10:58:34.943Z,1000.12
2023-08-02T10:59:39.021Z,1000.10
2023-08-02T11:00:43.392Z,1000.04
2023-08-02T11:01:47.689Z,999.94
2023-08-02T11:02:52.320Z,999.94
2023-08-02T11:03:56.623Z,999.85
2023-08-02T11:05:00.730Z,999.85
2023-08-02T11:06:05.336Z,999.80
2023-08-02T11:07:09.641Z,999.89
2023-08-02T11:08:13.733Z,999.91
2023-08-02T11:09:18.310Z,999.85
2023-08-02T11:10:22.652Z,999.85
2023-08-02T11:11:26.971Z,999.82
2023-08-02T11:12:31.059Z,999.80
2023-08-02T11:13:35.666Z,999.75
2023-08-02T11:14:40.168Z,999.81
2023-08-02T11:15:44.721Z,999.82
2023-08-02T11:17:54.459Z,999.75
2023-08-02T11:18:57.483Z,999.72
2023-08-02T11:21:06.050Z,999.72
2023-08-02T11:22:10.133Z,999.67
2023-08-02T11:23:14.739Z,999.66
2023-08-02T11:24:19.314Z,999.65
2023-08-02T11:25:40.649Z,999.59
2023-08-02T11:26:23.756Z,999.56
2023-08-02T11:27:53.928Z,999.53
2023-08-02T11:28:32.202Z,999.53
2023-08-02T11:29:36.592Z,999.56
2023-08-02T11:30:40.648Z,999.58
2023-08-02T11:31:47.296Z,999.61
2023-08-02T11:32:49.363Z,999.50
2023-08-02T11:33:53.671Z,999.49
2023-08-02T11:34:58.281Z,999.44
2023-08-02T11:36:02.609Z,999.42
2023-08-02T11:37:06.955Z,999.39
2023-08-02T11:38:11.036Z,999.30
2023-08-02T11:39:15.383Z,999.25
2023-08-02T11:40:26.858Z,999.14
2023-08-02T11:41:25.100Z,999.15
2023-08-02T11:42:24.530Z,999.11
2023-08-02T11:44:34.454Z,999.03
2023-08-02T11:45:37.288Z,998.98
2023-08-02T11:46:42.091Z,998.86
2023-08-02T11:47:46.749Z,998.69
2023-08-02T11:48:50.534Z,998.46
2023-08-02T11:49:54.862Z,998.24
2023-08-02T11:51:01.670Z,998.08
2023-08-02T11:52:03.526Z,998.00
2023-08-02T11:53:07.671Z,998.17
2023-08-02T11:54:12.178Z,998.36
2023-08-02T11:55:12.328Z,998.67
2023-08-02T11:56:16.384Z,998.90
2023-08-02T11:57:23.714Z,999.04
2023-08-02T11:58:22.860Z,999.11
2023-08-02T11:59:27.462Z,999.07
2023-08-02T12:00:31.530Z,999.05
2023-08-02T12:01:35.762Z,999.09
2023-08-02T12:02:40.247Z,999.08
2023-08-02T12:03:44.586Z,999.10
2023-08-02T12:04:48.896Z,999.15
2023-08-02T12:05:52.958Z,999.13
2023-08-02T12:06:57.428Z,999.07
2023-08-02T12:08:01.957Z,999.02
2023-08-02T12:09:06.239Z,998.94
2023-08-02T12:10:10.328Z,998.91
2023-08-02T12:11:15.941Z,998.97
2023-08-02T12:12:15.048Z,998.90
2023-08-02T12:13:19.390Z,998.90
2023-08-02T12:14:23.447Z,998.87
2023-08-02T12:15:27.808Z,998.82
2023-08-02T12:16:32.215Z,998.88
2023-08-02T12:17:36.754Z,998.79
2023-08-02T12:18:41.053Z,998.79
2023-08-02T12:19:47.718Z,998.73
2023-08-02T12:20:49.975Z,998.74
2023-08-02T12:21:54.073Z,998.77
2023-08-02T12:22:58.161Z,998.74
2023-08-02T12:24:02.747Z,998.65
2023-08-02T12:25:02.684Z,998.65
2023-08-02T12:26:07.282Z,998.57
2023-08-02T12:27:11.602Z,998.53
2023-08-02T12:28:15.956Z,998.52
2023-08-02T12:29:20.011Z,998.50
2023-08-02T12:30:24.635Z,998.54
2023-08-02T12:31:28.752Z,998.47
2023-08-02T12:32:33.300Z,998.47
2023-08-02T12:33:37.412Z,998.43
2023-08-02T12:34:41.710Z,998.41
2023-08-02T12:35:46.308Z,998.39
2023-08-02T12:36:50.415Z,998.35
2023-08-02T12:37:54.742Z,998.37
2023-08-02T12:38:59.347Z,998.37
2023-08-02T12:40:03.676Z,998.37
2023-08-02T12:41:08.015Z,998.44
2023-08-02T12:42:12.589Z,998.43
2023-08-02T12:43:16.684Z,998.44
2023-08-02T12:44:21.049Z,998.48
2023-08-02T12:45:25.112Z,998.40
2023-08-02T12:46:29.474Z,998.47
2023-08-02T12:47:33.910Z,998.35
2023-08-02T12:48:38.151Z,998.26
2023-08-02T12:49:42.518Z,998.18
2023-08-02T12:50:47.091Z,998.08
2023-08-02T12:51:51.413Z,998.10
2023-08-02T12:52:55.509Z,998.17
2023-08-02T12:53:59.856Z,998.18
2023-08-02T12:55:00.336Z,998.19
2023-08-02T12:56:04.429Z,998.24
2023-08-02T12:57:09.042Z,998.32
2023-08-02T12:58:13.123Z,998.38
2023-08-02T12:59:17.714Z,998.39
2023-08-02T13:00:22.074Z,998.32
2023-08-02T13:01:26.658Z,998.32
2023-08-02T13:02:31.049Z,998.25
2023-08-02T13:03:34.868Z,998.31
2023-08-02T13:04:39.135Z,998.26
2023-08-02T13:05:43.773Z,998.20
2023-08-02T13:06:55.602Z,998.20
2023-08-02T13:07:52.712Z,998.12
2023-08-02T13:08:56.763Z,998.13